Time;durP1;ratioP1;P1;durP2;ratioP2;P2;SDS_P1;SDS_P2;PMS_P1;PMS_P2;Temp;Humidity;BMP_temperature;BMP_pressure;BME280_temperature;BME280_humidity;BME280_pressure;Samples;Min_cycle;Max_cycle;Signal;HPM_P1;HPM_P2
2022/12/24 00:01:46;;;;;;;14.20;13.70;;;9.30;99.90;;;;;;5010315;28;20104;-74
2022/12/24 00:04:12;;;;;;;15.57;14.98;;;9.30;99.90;;;;;;5010375;28;20116;-74
2022/12/24 00:06:37;;;;;;;15.18;14.68;;;9.20;99.90;;;;;;5011494;28;20038;-74
2022/12/24 00:09:03;;;;;;;14.93;14.43;;;9.10;99.90;;;;;;5011388;28;20029;-74
2022/12/24 00:11:29;;;;;;;14.95;14.45;;;9.10;99.90;;;;;;5010309;28;20518;-74
2022/12/24 00:13:54;;;;;;;15.93;15.32;;;9.10;99.90;;;;;;5011596;28;20034;-74
2022/12/24 00:16:20;;;;;;;17.23;16.63;;;9.10;99.90;;;;;;5010243;28;20025;-74
2022/12/24 00:18:45;;;;;;;15.90;15.30;;;8.80;99.90;;;;;;5022377;28;20373;-75
2022/12/24 00:21:11;;;;;;;16.55;15.95;;;8.90;99.90;;;;;;5018098;28;20053;-73
2022/12/24 00:23:37;;;;;;;15.13;14.63;;;8.80;99.90;;;;;;5030870;28;20025;-73
2022/12/24 00:26:02;;;;;;;17.38;16.77;;;8.80;99.90;;;;;;5024611;28;20041;-74
2022/12/24 00:28:28;;;;;;;17.75;17.15;;;8.80;99.90;;;;;;5010030;28;20072;-74
2022/12/24 00:30:53;;;;;;;16.00;15.40;;;8.70;99.90;;;;;;5013156;28;20093;-73
2022/12/24 00:33:21;;;;;;;16.60;16.00;;;8.70;99.90;;;;;;5025853;28;20044;-74
2022/12/24 00:35:49;;;;;;;15.60;15.00;;;8.90;99.90;;;;;;5011456;28;20433;-74
2022/12/24 00:38:15;;;;;;;15.95;15.35;;;8.90;99.90;;;;;;5009873;28;20453;-73
2022/12/24 00:40:40;;;;;;;16.00;15.40;;;8.80;99.90;;;;;;5011390;28;20037;-73
2022/12/24 00:43:06;;;;;;;10.07;9.73;;;8.80;99.90;;;;;;5011238;28;20041;-74
2022/12/24 00:45:31;;;;;;;11.30;10.90;;;9.00;99.90;;;;;;5017607;28;20036;-73
2022/12/24 00:47:57;;;;;;;9.77;9.48;;;9.30;99.90;;;;;;5018101;28;20033;-73
2022/12/24 00:50:23;;;;;;;10.50;10.10;;;9.20;99.90;;;;;;5029647;28;20053;-73
2022/12/24 00:52:48;;;;;;;7.63;7.35;;;9.10;99.90;;;;;;5020346;28;20052;-74
2022/12/24 00:55:14;;;;;;;5.68;5.47;;;9.30;99.90;;;;;;5014953;28;20127;-73
2022/12/24 00:57:39;;;;;;;6.95;6.72;;;9.30;99.90;;;;;;5013449;28;20564;-73
2022/12/24 01:00:06;;;;;;;7.55;7.25;;;9.30;99.90;;;;;;5014753;28;20030;-73
2022/12/24 01:02:31;;;;;;;6.70;6.50;;;9.30;99.90;;;;;;5014697;28;20097;-73
2022/12/24 01:05:09;;;;;;;4.32;4.20;;;9.10;99.90;;;;;;5014729;28;20109;-73
2022/12/24 01:07:36;;;;;;;4.80;4.65;;;9.20;99.90;;;;;;5014413;28;20026;-75
2022/12/24 01:10:02;;;;;;;3.15;3.05;;;9.20;99.90;;;;;;5014953;28;20068;-74
2022/12/24 01:12:28;;;;;;;4.30;4.20;;;9.20;99.90;;;;;;5014582;28;20034;-74
2022/12/24 01:14:53;;;;;;;5.43;5.22;;;9.00;99.90;;;;;;5014650;28;20033;-75
2022/12/24 01:17:19;;;;;;;4.03;3.92;;;9.00;99.90;;;;;;5014242;28;20096;-74
2022/12/24 01:19:44;;;;;;;4.50;4.30;;;8.80;99.90;;;;;;5013201;28;20404;-74
2022/12/24 01:22:10;;;;;;;4.72;4.53;;;8.90;99.90;;;;;;5014348;28;20026;-75
2022/12/24 01:24:35;;;;;;;7.38;5.25;;;8.90;99.90;;;;;;5022111;28;20392;-75
2022/12/24 01:27:01;;;;;;;6.18;5.57;;;8.90;99.90;;;;;;5019485;28;20392;-75
2022/12/24 01:29:26;;;;;;;5.68;5.47;;;8.90;99.90;;;;;;5014433;28;20034;-74
2022/12/24 01:31:52;;;;;;;4.68;4.55;;;8.80;99.90;;;;;;5028641;28;20086;-75
2022/12/24 01:34:17;;;;;;;5.10;4.90;;;8.70;99.90;;;;;;5014266;28;20518;-73
2022/12/24 01:36:43;;;;;;;5.53;5.32;;;8.80;99.90;;;;;;5014037;28;20543;-73
2022/12/24 01:39:09;;;;;;;5.30;5.10;;;8.70;99.90;;;;;;5013860;28;20030;-73
2022/12/24 01:44:27;;;;;;;6.32;6.13;;;8.40;99.90;;;;;;5014116;28;20064;-73
2022/12/24 01:47:20;;;;;;;5.88;5.68;;;8.40;99.90;;;;;;5013513;28;20029;-74
2022/12/24 01:50:00;;;;;;;5.75;5.55;;;8.40;99.90;;;;;;5013909;28;20021;-75
2022/12/24 01:52:34;;;;;;;6.38;6.18;;;8.30;99.90;;;;;;5013869;28;20069;-74
2022/12/24 01:55:06;;;;;;;5.93;5.72;;;8.30;99.90;;;;;;5013805;28;20032;-74
2022/12/24 01:57:47;;;;;;;5.63;5.43;;;8.20;99.90;;;;;;5013530;28;20052;-75
2022/12/24 02:00:14;;;;;;;5.70;5.50;;;8.30;99.90;;;;;;5021533;28;20028;-73
2022/12/24 02:02:45;;;;;;;6.28;6.07;;;8.30;99.90;;;;;;5033613;28;20498;-74
2022/12/24 02:05:17;;;;;;;4.38;4.18;;;8.10;99.90;;;;;;5031804;28;20033;-74
2022/12/24 02:07:45;;;;;;;5.80;5.60;;;8.10;99.90;;;;;;5017133;28;20040;-73
2022/12/24 02:10:12;;;;;;;5.80;5.60;;;8.20;99.90;;;;;;5013515;28;20049;-76
2022/12/24 02:12:39;;;;;;;6.10;5.90;;;8.10;99.90;;;;;;5013285;28;20026;-74
2022/12/24 02:15:07;;;;;;;6.20;6.00;;;8.10;99.90;;;;;;5012153;28;20117;-74
2022/12/24 02:17:39;;;;;;;6.60;6.40;;;8.00;99.90;;;;;;5011833;28;20037;-75
2022/12/24 02:20:22;;;;;;;5.18;4.97;;;8.10;99.90;;;;;;5012075;28;20022;-76
2022/12/24 02:23:16;;;;;;;6.97;6.78;;;8.00;99.90;;;;;;5018828;28;20101;-75
2022/12/24 02:26:04;;;;;;;6.70;6.50;;;8.00;99.90;;;;;;5030004;28;20471;-74
2022/12/24 02:28:42;;;;;;;7.57;7.28;;;8.40;99.90;;;;;;5029737;28;20033;-74
2022/12/24 02:31:20;;;;;;;5.97;5.78;;;8.30;99.90;;;;;;5029028;28;20028;-74
2022/12/24 02:33:58;;;;;;;5.93;5.72;;;8.50;99.90;;;;;;5047183;28;20472;-73
2022/12/24 02:36:37;;;;;;;6.82;6.63;;;8.40;99.90;;;;;;5013126;28;20080;-73
2022/12/24 02:39:07;;;;;;;8.05;7.75;;;8.50;99.90;;;;;;5018613;28;20026;-73
2022/12/24 02:44:27;;;;;;;4.60;4.47;;;8.50;99.90;;;;;;5013337;28;20431;-74
2022/12/24 02:46:54;;;;;;;7.85;7.55;;;8.50;99.90;;;;;;5012594;28;20492;-73
2022/12/24 02:49:20;;;;;;;7.80;7.50;;;8.70;99.90;;;;;;5012776;28;20022;-73
2022/12/24 02:51:46;;;;;;;6.25;6.05;;;8.60;99.90;;;;;;5012872;28;20032;-73
2022/12/24 02:54:12;;;;;;;7.60;7.30;;;8.60;99.90;;;;;;5023845;28;20534;-74
2022/12/24 02:56:53;;;;;;;8.13;7.38;;;8.70;99.90;;;;;;5031026;28;20025;-73
2022/12/24 02:59:41;;;;;;;5.20;5.00;;;8.70;99.90;;;;;;5032455;28;20105;-73
2022/12/24 03:02:22;;;;;;;6.15;5.95;;;8.70;99.90;;;;;;5019810;28;20036;-73
2022/12/24 03:04:54;;;;;;;5.75;5.55;;;8.60;99.90;;;;;;5017899;28;20121;-72
2022/12/24 03:07:23;;;;;;;5.43;5.22;;;8.60;99.90;;;;;;5012169;28;20026;-75
2022/12/24 03:10:08;;;;;;;6.40;6.20;;;8.50;99.90;;;;;;5020854;28;20103;-75
2022/12/24 03:12:47;;;;;;;5.53;5.32;;;8.50;99.90;;;;;;5017067;28;20496;-75
2022/12/24 03:15:16;;;;;;;4.90;4.70;;;8.70;99.90;;;;;;5011624;28;20018;-75
2022/12/24 03:17:44;;;;;;;4.07;3.97;;;8.60;99.90;;;;;;5010774;28;20025;-73
2022/12/24 03:20:12;;;;;;;3.60;3.50;;;8.80;99.90;;;;;;5012404;28;20398;-73
2022/12/24 03:22:38;;;;;;;4.88;4.68;;;8.80;99.90;;;;;;5011981;28;20034;-75
2022/12/24 03:25:04;;;;;;;4.20;4.10;;;8.80;99.90;;;;;;5022427;28;20026;-75
2022/12/24 03:27:32;;;;;;;4.47;4.28;;;8.70;99.90;;;;;;5013522;28;20036;-74
2022/12/24 03:29:58;;;;;;;3.35;3.25;;;8.80;99.90;;;;;;5010880;28;20108;-72
2022/12/24 03:32:32;;;;;;;5.22;4.75;;;8.80;99.90;;;;;;5026932;28;20520;-73
2022/12/24 03:34:58;;;;;;;4.28;3.95;;;8.90;99.90;;;;;;5025109;28;20029;-73
2022/12/24 03:37:26;;;;;;;2.40;2.30;;;8.80;99.90;;;;;;5031410;28;20079;-73
2022/12/24 03:39:51;;;;;;;2.92;2.83;;;8.80;99.90;;;;;;5027419;28;20055;-73
2022/12/24 03:42:17;;;;;;;3.80;3.63;;;8.80;99.90;;;;;;5020719;28;20499;-73
2022/12/24 03:44:42;;;;;;;2.70;2.60;;;8.70;99.90;;;;;;5012055;28;20030;-73
2022/12/24 03:47:08;;;;;;;2.30;2.20;;;8.80;99.90;;;;;;5011697;28;20030;-73
2022/12/24 03:49:33;;;;;;;2.72;2.63;;;8.90;99.90;;;;;;5011836;28;20080;-73
2022/12/24 03:51:59;;;;;;;3.03;2.92;;;8.90;99.90;;;;;;5011618;28;20021;-73
2022/12/24 03:54:24;;;;;;;2.80;2.70;;;8.80;99.90;;;;;;5010605;28;20447;-74
2022/12/24 03:56:50;;;;;;;2.80;2.70;;;8.70;99.90;;;;;;5011756;28;20041;-74
2022/12/24 03:59:15;;;;;;;3.40;3.13;;;8.70;99.90;;;;;;5023201;28;20034;-74
2022/12/24 04:01:41;;;;;;;2.70;2.60;;;8.80;99.90;;;;;;5031456;28;20038;-75
2022/12/24 04:04:07;;;;;;;2.90;2.80;;;8.70;99.90;;;;;;5030258;28;20068;-75
2022/12/24 04:06:32;;;;;;;2.60;2.50;;;8.70;99.90;;;;;;5031180;28;20028;-74
2022/12/24 04:09:00;;;;;;;2.25;2.17;;;8.70;99.90;;;;;;5031413;28;20032;-75
2022/12/24 04:11:26;;;;;;;2.40;2.30;;;8.80;99.90;;;;;;5030120;28;20025;-75
2022/12/24 04:13:52;;;;;;;2.30;2.20;;;8.50;99.90;;;;;;5029972;28;20022;-75
2022/12/24 04:16:17;;;;;;;2.50;2.40;;;8.50;99.90;;;;;;5031323;28;20105;-75
2022/12/24 04:18:43;;;;;;;2.13;2.05;;;8.50;99.90;;;;;;5029874;28;20486;-74
2022/12/24 04:21:09;;;;;;;2.40;2.30;;;8.60;99.90;;;;;;5026129;28;20484;-74
2022/12/24 04:23:37;;;;;;;2.53;2.47;;;8.40;99.90;;;;;;5022055;28;20471;-75
2022/12/24 04:26:05;;;;;;;2.47;2.38;;;8.50;99.90;;;;;;5024791;28;20400;-74
2022/12/24 04:28:32;;;;;;;1.80;1.80;;;8.40;99.90;;;;;;5028253;28;20025;-74
2022/12/24 04:31:02;;;;;;;2.50;2.40;;;8.40;99.90;;;;;;5036568;28;20507;-74
2022/12/24 04:33:28;;;;;;;2.70;2.60;;;8.30;99.90;;;;;;5026987;28;20034;-74
2022/12/24 04:35:56;;;;;;;2.65;2.55;;;8.20;99.90;;;;;;5015242;28;20079;-73
2022/12/24 04:38:22;;;;;;;2.90;2.80;;;8.10;99.90;;;;;;5013779;28;20030;-74
2022/12/24 04:40:47;;;;;;;2.70;2.60;;;8.00;99.90;;;;;;5014008;28;20471;-75
2022/12/24 04:43:13;;;;;;;2.70;2.60;;;8.00;99.90;;;;;;5014128;28;20117;-75
2022/12/24 04:45:39;;;;;;;2.55;2.45;;;8.00;99.90;;;;;;5015053;28;20492;-76
2022/12/24 04:48:05;;;;;;;2.83;2.72;;;8.10;99.90;;;;;;5014869;28;20064;-74
2022/12/24 04:50:30;;;;;;;2.95;2.85;;;8.10;99.90;;;;;;5015036;28;20022;-74
2022/12/24 04:52:57;;;;;;;3.33;3.22;;;8.10;99.90;;;;;;5014830;28;20022;-74
2022/12/24 04:55:22;;;;;;;3.17;3.08;;;8.10;99.90;;;;;;5013708;28;20029;-73
2022/12/24 04:57:48;;;;;;;3.00;2.90;;;8.00;99.90;;;;;;5014913;28;20423;-74
2022/12/24 05:00:14;;;;;;;3.65;3.55;;;8.10;99.90;;;;;;5013668;28;20022;-73
2022/12/24 05:02:39;;;;;;;2.80;2.70;;;8.10;99.90;;;;;;5013256;28;20021;-73
2022/12/24 05:05:05;;;;;;;3.75;3.63;;;8.10;99.90;;;;;;5014860;28;20026;-74
2022/12/24 05:07:32;;;;;;;2.63;2.53;;;8.10;99.90;;;;;;5014373;28;20058;-76
2022/12/24 05:09:57;;;;;;;2.75;2.65;;;8.10;99.90;;;;;;5014948;28;20056;-75
2022/12/24 05:12:23;;;;;;;3.00;2.90;;;8.20;99.90;;;;;;5014482;28;20058;-74
2022/12/24 05:14:49;;;;;;;3.00;2.90;;;8.20;99.90;;;;;;5014599;28;20440;-74
2022/12/24 05:17:14;;;;;;;2.90;2.80;;;8.10;99.90;;;;;;5012980;28;20028;-74
2022/12/24 05:19:40;;;;;;;2.90;2.80;;;8.20;99.90;;;;;;5014523;28;20039;-74
2022/12/24 05:27:34;;;;;;;3.40;3.30;;;8.10;99.90;;;;;;5015929;28;20037;-75
2022/12/24 05:29:59;;;;;;;3.30;3.20;;;8.10;99.90;;;;;;5014309;28;20034;-75
2022/12/24 05:32:25;;;;;;;3.45;3.35;;;8.10;99.90;;;;;;5030485;28;20076;-76
2022/12/24 05:34:51;;;;;;;3.28;3.17;;;8.10;99.90;;;;;;5012891;28;20056;-76
2022/12/24 05:37:16;;;;;;;3.45;3.35;;;8.10;99.90;;;;;;5012644;28;20446;-74
2022/12/24 05:39:42;;;;;;;3.55;3.45;;;8.10;99.90;;;;;;5013310;28;20045;-74
2022/12/24 05:42:07;;;;;;;3.33;3.22;;;8.10;99.90;;;;;;5014030;28;20030;-74
2022/12/24 05:44:33;;;;;;;3.20;3.10;;;8.20;99.90;;;;;;5025872;28;20483;-74
2022/12/24 05:46:58;;;;;;;3.83;3.72;;;8.10;99.90;;;;;;5020275;28;20040;-75
2022/12/24 05:49:24;;;;;;;3.40;3.30;;;8.20;99.90;;;;;;5022645;28;20476;-74
2022/12/24 05:51:49;;;;;;;3.50;3.40;;;8.20;99.90;;;;;;5025952;28;20505;-74
2022/12/24 05:54:15;;;;;;;3.90;3.80;;;8.20;99.90;;;;;;5025146;28;20115;-74
2022/12/24 05:56:40;;;;;;;3.70;3.60;;;8.10;99.90;;;;;;5015990;28;20034;-75
2022/12/24 05:59:06;;;;;;;2.90;2.80;;;8.10;99.90;;;;;;5013721;28;20030;-74
2022/12/24 06:01:32;;;;;;;3.80;3.70;;;8.20;99.90;;;;;;5018011;28;20104;-76
2022/12/24 06:03:57;;;;;;;3.90;3.80;;;8.20;99.90;;;;;;5032339;28;20029;-75
2022/12/24 06:06:25;;;;;;;3.55;3.45;;;8.20;99.90;;;;;;5029801;28;20590;-74
2022/12/24 06:08:52;;;;;;;3.83;3.72;;;8.20;99.90;;;;;;5024296;28;20475;-76
2022/12/24 06:11:23;;;;;;;3.70;3.60;;;8.20;99.90;;;;;;5014673;28;20393;-74
2022/12/24 06:13:49;;;;;;;3.83;3.72;;;8.20;99.90;;;;;;5012104;28;20026;-75
2022/12/24 06:16:17;;;;;;;3.92;3.83;;;8.20;99.90;;;;;;5018185;28;20030;-75
2022/12/24 06:18:43;;;;;;;3.70;3.60;;;8.20;99.90;;;;;;5021034;28;20072;-76
2022/12/24 06:21:09;;;;;;;4.35;4.25;;;8.20;99.90;;;;;;5031791;28;20025;-74
2022/12/24 06:23:38;;;;;;;4.07;3.97;;;8.20;99.90;;;;;;5033015;28;20033;-75
2022/12/24 06:26:05;;;;;;;3.80;3.70;;;8.20;99.90;;;;;;5018335;28;20036;-75
2022/12/24 06:28:33;;;;;;;3.70;3.60;;;8.20;99.90;;;;;;5019570;28;20026;-74
2022/12/24 06:31:02;;;;;;;3.80;3.70;;;8.20;99.90;;;;;;5016246;28;20321;-74
2022/12/24 06:33:28;;;;;;;3.80;3.70;;;8.20;99.90;;;;;;5023812;28;20491;-74
2022/12/24 06:35:54;;;;;;;4.30;4.20;;;8.10;99.90;;;;;;5031573;28;20034;-75
2022/12/24 06:38:20;;;;;;;4.20;4.10;;;8.10;99.90;;;;;;5031518;28;20109;-74
2022/12/24 06:40:46;;;;;;;4.10;4.00;;;8.10;99.90;;;;;;5032564;28;20483;-75
2022/12/24 06:43:13;;;;;;;4.00;3.90;;;8.10;99.90;;;;;;5032613;28;20398;-75
2022/12/24 06:45:39;;;;;;;4.20;4.10;;;8.10;99.90;;;;;;5032584;28;20423;-76
2022/12/24 06:48:05;;;;;;;4.40;4.30;;;8.10;99.90;;;;;;5032415;28;20017;-76
2022/12/24 06:50:32;;;;;;;4.78;4.60;;;8.10;99.90;;;;;;5032456;28;20506;-76
2022/12/24 06:52:58;;;;;;;5.03;4.82;;;8.10;99.90;;;;;;5031033;28;20076;-75
2022/12/24 06:55:23;;;;;;;4.97;4.78;;;8.10;99.90;;;;;;5032493;28;20049;-76
2022/12/24 06:57:49;;;;;;;18.48;7.38;;;8.10;99.90;;;;;;5032128;28;20330;-76
2022/12/24 07:00:14;;;;;;;4.60;4.50;;;8.10;99.90;;;;;;5032375;28;20025;-75
2022/12/24 07:02:41;;;;;;;6.65;6.45;;;8.00;99.90;;;;;;5032291;28;20101;-75
2022/12/24 07:05:09;;;;;;;5.00;4.80;;;8.00;99.90;;;;;;5032379;28;20029;-75
2022/12/24 07:07:44;;;;;;;5.25;5.05;;;8.00;99.90;;;;;;5031991;28;20361;-75
2022/12/24 07:10:13;;;;;;;4.72;4.63;;;8.10;99.90;;;;;;5031055;28;20095;-74
2022/12/24 07:12:39;;;;;;;5.00;4.80;;;8.00;99.90;;;;;;5032274;28;20026;-74
2022/12/24 07:15:05;;;;;;;5.40;5.20;;;8.00;99.90;;;;;;5028304;28;20028;-75
2022/12/24 07:17:30;;;;;;;5.50;5.30;;;8.00;99.90;;;;;;5026676;28;20039;-76
2022/12/24 07:19:56;;;;;;;5.75;5.55;;;8.00;99.90;;;;;;5030887;28;20398;-76
2022/12/24 07:22:22;;;;;;;6.00;5.80;;;8.00;99.90;;;;;;5027066;28;20467;-74
2022/12/24 07:24:47;;;;;;;5.50;5.30;;;8.00;99.90;;;;;;5030601;28;20518;-77
2022/12/24 07:27:13;;;;;;;5.88;5.68;;;8.00;99.90;;;;;;5016178;28;20357;-77
2022/12/24 07:29:40;;;;;;;15.15;10.52;;;8.00;99.90;;;;;;5012160;28;20392;-76
2022/12/24 07:32:05;;;;;;;5.00;4.80;;;8.00;99.90;;;;;;5019240;28;20430;-76
2022/12/24 07:34:31;;;;;;;5.47;5.28;;;7.80;99.90;;;;;;5020667;28;20104;-76
2022/12/24 07:36:56;;;;;;;5.35;5.15;;;8.00;99.90;;;;;;5025120;28;20113;-75
2022/12/24 07:39:22;;;;;;;5.60;5.40;;;8.00;99.90;;;;;;5012105;28;20373;-77
2022/12/24 07:41:49;;;;;;;5.30;5.10;;;8.00;99.90;;;;;;5011841;28;20556;-76
2022/12/24 07:44:15;;;;;;;4.80;4.70;;;8.00;99.90;;;;;;5012580;28;20061;-77
2022/12/24 07:46:41;;;;;;;5.32;5.13;;;8.00;99.90;;;;;;5014796;28;20053;-76
2022/12/24 07:49:06;;;;;;;5.15;4.95;;;8.00;99.90;;;;;;5030671;28;20475;-76
2022/12/24 07:51:32;;;;;;;5.20;5.00;;;8.00;99.90;;;;;;5029944;28;20040;-76
2022/12/24 07:53:58;;;;;;;4.60;4.50;;;8.00;99.90;;;;;;5022284;28;20034;-76
2022/12/24 07:56:23;;;;;;;5.10;4.90;;;8.00;99.90;;;;;;5012941;28;20026;-76
2022/12/24 07:58:50;;;;;;;5.40;5.20;;;8.00;99.90;;;;;;5021526;28;20523;-75
2022/12/24 08:01:16;;;;;;;5.30;5.10;;;8.10;99.90;;;;;;5025531;28;20033;-76
2022/12/24 08:03:41;;;;;;;5.97;5.75;;;8.10;99.90;;;;;;5029960;28;20030;-74
2022/12/24 08:06:07;;;;;;;7.78;7.10;;;8.10;99.90;;;;;;5031122;28;20506;-75
2022/12/24 08:08:32;;;;;;;5.80;5.60;;;8.20;99.90;;;;;;5029197;28;20072;-74
2022/12/24 08:11:04;;;;;;;6.38;6.18;;;8.20;99.90;;;;;;5029850;28;20025;-74
2022/12/24 08:13:30;;;;;;;5.10;4.90;;;8.20;99.90;;;;;;5031187;28;20506;-74
2022/12/24 08:15:56;;;;;;;5.30;5.10;;;8.30;99.90;;;;;;5031526;28;20034;-75
2022/12/24 08:18:22;;;;;;;5.70;5.50;;;8.20;99.90;;;;;;5030498;28;20075;-74
2022/12/24 08:20:47;;;;;;;5.40;5.20;;;8.20;99.90;;;;;;5030893;28;20039;-76
2022/12/24 08:23:13;;;;;;;6.53;6.32;;;8.20;99.90;;;;;;5029466;28;20542;-75
2022/12/24 08:25:42;;;;;;;5.85;5.65;;;8.20;99.90;;;;;;5027342;28;20435;-75
2022/12/24 08:28:08;;;;;;;6.00;5.80;;;8.20;99.90;;;;;;5014412;28;20030;-76
2022/12/24 08:30:34;;;;;;;6.00;5.80;;;8.20;99.90;;;;;;5010211;28;20535;-75
2022/12/24 08:32:59;;;;;;;6.25;6.05;;;8.20;99.90;;;;;;5019520;28;20029;-76
2022/12/24 08:35:25;;;;;;;6.55;6.35;;;8.30;99.90;;;;;;5025332;28;20022;-75
2022/12/24 08:37:51;;;;;;;26.83;6.55;;;8.30;99.90;;;;;;5020660;28;20507;-75
2022/12/24 08:40:16;;;;;;;6.60;6.40;;;8.30;99.90;;;;;;5015066;28;20097;-76
2022/12/24 08:42:42;;;;;;;6.40;6.10;;;8.20;99.90;;;;;;5020764;28;20120;-75
2022/12/24 08:45:08;;;;;;;6.00;5.80;;;8.20;99.90;;;;;;5028372;28;20476;-76
2022/12/24 08:47:34;;;;;;;7.65;7.30;;;8.20;99.90;;;;;;5020361;28;20029;-74
2022/12/24 08:50:00;;;;;;;7.00;6.80;;;8.30;99.90;;;;;;5014914;28;20026;-76
2022/12/24 08:52:25;;;;;;;6.30;6.10;;;8.30;99.90;;;;;;5021551;28;20115;-75
2022/12/24 08:54:51;;;;;;;6.70;6.50;;;8.30;99.90;;;;;;5018634;28;20025;-76
2022/12/24 08:57:16;;;;;;;7.65;7.35;;;8.40;99.90;;;;;;5031494;28;20029;-75
2022/12/24 08:59:42;;;;;;;6.85;6.65;;;8.30;99.90;;;;;;5019633;28;20033;-75
2022/12/24 09:02:08;;;;;;;6.90;6.70;;;8.40;99.90;;;;;;5036721;28;20052;-75
2022/12/24 09:04:38;;;;;;;15.48;6.68;;;8.40;99.90;;;;;;5031745;28;20021;-75
2022/12/24 09:07:04;;;;;;;6.57;6.38;;;8.40;99.90;;;;;;5019467;28;20102;-74
2022/12/24 09:09:30;;;;;;;6.78;6.57;;;8.40;99.90;;;;;;5024266;28;20076;-75
2022/12/24 09:11:55;;;;;;;6.28;6.07;;;8.40;99.90;;;;;;5019427;28;20395;-75
2022/12/24 09:14:21;;;;;;;6.70;6.50;;;8.50;99.90;;;;;;5019512;28;20041;-75
2022/12/24 09:16:47;;;;;;;7.78;7.47;;;8.50;99.90;;;;;;5033313;28;20032;-75
2022/12/24 09:19:12;;;;;;;7.25;7.05;;;8.50;99.90;;;;;;5031635;28;20041;-75
2022/12/24 09:21:38;;;;;;;7.00;6.80;;;8.60;99.90;;;;;;5022370;28;20037;-75
2022/12/24 09:24:04;;;;;;;7.38;7.15;;;8.60;99.90;;;;;;5021617;28;20030;-75
2022/12/24 09:26:30;;;;;;;7.15;6.95;;;8.70;99.90;;;;;;5034355;28;20086;-75
2022/12/24 09:28:57;;;;;;;6.70;6.50;;;8.70;99.90;;;;;;5020227;28;20025;-76
2022/12/24 09:31:23;;;;;;;6.45;6.25;;;8.70;99.90;;;;;;5022763;28;20018;-75
2022/12/24 09:33:50;;;;;;;7.20;7.00;;;8.70;99.90;;;;;;5027447;28;20030;-75
2022/12/24 09:36:16;;;;;;;7.10;6.90;;;8.70;99.90;;;;;;5024479;28;20032;-75
2022/12/24 09:38:42;;;;;;;10.07;9.68;;;8.70;99.90;;;;;;5018716;28;20120;-75
2022/12/24 09:41:29;;;;;;;8.40;8.10;;;8.60;99.90;;;;;;5023658;28;20105;-75
2022/12/24 09:44:10;;;;;;;7.57;7.28;;;8.70;99.90;;;;;;5020482;28;20065;-75
2022/12/24 09:46:40;;;;;;;7.72;7.43;;;8.70;99.90;;;;;;5020364;28;20042;-75
2022/12/24 09:49:15;;;;;;;8.50;8.20;;;8.70;99.90;;;;;;5023046;28;20483;-76
2022/12/24 09:51:48;;;;;;;8.75;8.45;;;8.70;99.90;;;;;;5026980;28;20088;-75
2022/12/24 09:54:24;;;;;;;8.57;8.27;;;8.70;99.90;;;;;;5024336;28;20036;-76
2022/12/24 09:56:53;;;;;;;8.30;8.00;;;8.70;99.90;;;;;;5019777;28;20026;-76
2022/12/24 09:59:24;;;;;;;7.88;7.57;;;8.70;99.90;;;;;;5024827;28;20511;-76
2022/12/24 10:01:53;;;;;;;8.40;8.10;;;8.70;99.90;;;;;;5026172;28;20037;-76
2022/12/24 10:04:27;;;;;;;8.18;7.88;;;8.70;99.90;;;;;;5017571;28;20032;-75
2022/12/24 10:07:25;;;;;;;9.25;8.95;;;8.70;99.90;;;;;;5020714;28;20029;-75
2022/12/24 10:10:00;;;;;;;8.60;8.30;;;8.80;99.90;;;;;;5002772;28;20041;-76
2022/12/24 10:12:44;;;;;;;10.43;10.02;;;8.80;99.90;;;;;;5013667;28;20030;-75
2022/12/24 10:15:26;;;;;;;9.05;8.75;;;8.90;99.90;;;;;;5023662;28;20030;-75
2022/12/24 10:18:23;;;;;;;8.70;8.40;;;8.90;99.90;;;;;;5018244;28;20091;-75
2022/12/24 10:21:14;;;;;;;9.82;9.52;;;9.10;99.90;;;;;;5018423;28;20026;-74
2022/12/24 10:24:14;;;;;;;10.73;10.32;;;9.10;99.90;;;;;;5018013;28;20164;-73
2022/12/24 10:27:13;;;;;;;8.77;8.18;;;9.20;99.90;;;;;;5020111;28;20026;-74
2022/12/24 10:29:45;;;;;;;10.25;9.85;;;9.40;99.90;;;;;;5013098;28;20129;-75
2022/12/24 10:32:29;;;;;;;8.40;8.10;;;9.50;99.90;;;;;;5036337;28;20026;-75
2022/12/24 10:35:01;;;;;;;9.38;9.07;;;9.60;99.90;;;;;;5032862;28;20075;-75
2022/12/24 10:37:28;;;;;;;10.63;9.77;;;9.60;99.90;;;;;;5019268;28;20022;-75
2022/12/24 10:39:56;;;;;;;13.13;12.52;;;9.60;99.90;;;;;;5019713;28;20459;-76
2022/12/24 10:42:30;;;;;;;10.30;9.90;;;9.80;99.90;;;;;;5023999;28;20030;-76
2022/12/24 10:45:02;;;;;;;10.50;10.00;;;9.80;99.90;;;;;;5011853;28;20064;-76
2022/12/24 10:47:32;;;;;;;15.10;11.35;;;10.00;99.90;;;;;;5021814;28;20030;-75
2022/12/24 10:50:12;;;;;;;9.98;9.02;;;9.90;99.90;;;;;;5019310;28;20049;-75
2022/12/24 10:52:41;;;;;;;10.27;9.32;;;10.00;99.90;;;;;;5021001;28;20480;-75
2022/12/24 10:55:19;;;;;;;5.15;4.95;;;10.10;99.90;;;;;;5026087;28;20026;-76
2022/12/24 10:57:55;;;;;;;6.18;5.80;;;10.10;99.90;;;;;;5012607;28;20053;-75
2022/12/24 11:00:23;;;;;;;4.32;4.22;;;10.10;99.90;;;;;;5020918;28;20492;-75
2022/12/24 11:03:10;;;;;;;6.07;5.85;;;10.20;99.90;;;;;;5030453;28;20029;-75
2022/12/24 11:05:36;;;;;;;7.35;6.93;;;10.20;99.90;;;;;;5022602;28;20118;-75
2022/12/24 11:08:16;;;;;;;3.83;3.50;;;10.20;99.90;;;;;;5018471;28;20021;-75
2022/12/24 11:10:54;;;;;;;5.30;2.88;;;10.30;99.90;;;;;;5017758;28;20026;-75
2022/12/24 11:13:27;;;;;;;3.42;2.35;;;10.40;99.90;;;;;;5020307;28;20079;-75
2022/12/24 11:16:17;;;;;;;1.88;1.77;;;10.40;99.90;;;;;;5016816;28;20507;-75
2022/12/24 11:18:52;;;;;;;15.82;2.38;;;10.40;99.90;;;;;;5011910;28;20022;-75
2022/12/24 11:21:30;;;;;;;2.05;1.85;;;10.50;99.90;;;;;;5011051;28;20056;-75
2022/12/24 11:24:12;;;;;;;5.88;2.10;;;10.50;99.90;;;;;;5024222;28;20088;-75
2022/12/24 11:26:42;;;;;;;1.20;1.20;;;10.40;99.90;;;;;;5016198;28;20472;-75
2022/12/24 11:29:23;;;;;;;2.38;2.28;;;10.50;99.90;;;;;;5023966;28;20391;-75
2022/12/24 11:31:51;;;;;;;5.30;1.40;;;10.40;99.90;;;;;;5025297;28;20030;-75
2022/12/24 11:34:30;;;;;;;4.30;2.63;;;10.50;99.90;;;;;;5019604;28;20017;-74
2022/12/24 11:37:19;;;;;;;8.45;2.92;;;10.40;99.90;;;;;;5023430;28;20033;-75
2022/12/24 11:39:58;;;;;;;0.80;0.80;;;10.30;99.90;;;;;;5031827;28;20164;-75
2022/12/24 11:42:34;;;;;;;1.10;1.00;;;10.30;99.90;;;;;;5028319;28;20040;-76
2022/12/24 11:45:03;;;;;;;3.10;1.63;;;10.30;99.90;;;;;;5018424;28;20037;-75
2022/12/24 11:47:33;;;;;;;2.85;1.00;;;10.40;99.90;;;;;;5020515;28;20097;-75
2022/12/24 11:50:26;;;;;;;4.10;1.52;;;10.40;99.90;;;;;;5014367;28;20387;-75
2022/12/24 11:53:06;;;;;;;8.73;2.28;;;10.30;99.90;;;;;;5012938;28;20079;-75
2022/12/24 11:55:35;;;;;;;2.05;1.52;;;10.30;99.90;;;;;;5021760;28;20028;-75
2022/12/24 11:58:25;;;;;;;26.92;2.85;;;10.30;99.90;;;;;;5026126;28;20018;-76
2022/12/24 12:00:53;;;;;;;3.25;2.00;;;10.10;99.90;;;;;;5011519;28;20492;-75
2022/12/24 12:03:34;;;;;;;1.60;1.60;;;10.00;99.90;;;;;;5024965;28;20018;-76
2022/12/24 12:06:19;;;;;;;5.22;3.53;;;9.90;99.90;;;;;;5010479;28;20022;-75
2022/12/24 12:08:46;;;;;;;2.15;2.00;;;9.90;99.90;;;;;;5024642;28;20041;-75
2022/12/24 12:11:13;;;;;;;4.25;3.15;;;9.80;99.90;;;;;;5020520;28;20316;-75
2022/12/24 12:13:41;;;;;;;2.35;2.25;;;9.70;99.90;;;;;;5015171;28;20083;-76
2022/12/24 12:16:24;;;;;;;1.60;1.60;;;9.60;99.90;;;;;;5018439;28;20168;-75
2022/12/24 12:18:59;;;;;;;2.88;2.03;;;9.60;99.90;;;;;;5017895;28;20032;-75
2022/12/24 12:21:40;;;;;;;2.22;2.15;;;9.40;99.90;;;;;;5010405;28;20145;-75
2022/12/24 12:24:13;;;;;;;2.00;2.00;;;9.30;99.90;;;;;;5024321;28;20395;-76
2022/12/24 12:26:41;;;;;;;2.40;2.28;;;9.50;99.90;;;;;;5026728;28;20026;-76
2022/12/24 12:29:22;;;;;;;2.30;2.20;;;9.20;99.90;;;;;;5025908;28;20014;-76
2022/12/24 12:31:54;;;;;;;3.95;3.75;;;9.30;99.90;;;;;;5024598;28;20522;-76
2022/12/24 12:34:26;;;;;;;3.08;2.97;;;9.40;99.90;;;;;;5019386;28;20383;-74
2022/12/24 12:37:01;;;;;;;3.85;3.75;;;9.40;99.90;;;;;;5015353;28;20030;-75
2022/12/24 12:39:30;;;;;;;3.17;3.08;;;9.40;99.90;;;;;;5021540;28;20033;-75
2022/12/24 12:42:19;;;;;;;4.72;3.35;;;9.20;99.90;;;;;;5027445;28;20096;-75
2022/12/24 12:45:05;;;;;;;3.75;3.45;;;9.20;99.90;;;;;;5024971;28;20044;-74
2022/12/24 12:47:49;;;;;;;3.28;3.17;;;9.20;99.90;;;;;;5025750;28;20033;-76
2022/12/24 12:50:18;;;;;;;3.58;3.47;;;9.20;99.90;;;;;;5030609;28;20087;-75
2022/12/24 12:52:57;;;;;;;3.15;3.05;;;9.30;99.90;;;;;;5015430;28;20026;-76
2022/12/24 12:55:51;;;;;;;3.30;3.20;;;9.30;99.90;;;;;;5017227;28;20022;-76
2022/12/24 12:58:25;;;;;;;3.00;2.90;;;9.40;99.90;;;;;;5019204;28;20069;-77
2022/12/24 13:01:18;;;;;;;3.40;3.30;;;9.30;99.90;;;;;;5023816;28;20018;-77
2022/12/24 13:04:09;;;;;;;3.88;3.78;;;9.30;99.90;;;;;;4994823;28;20347;-77
2022/12/24 13:06:56;;;;;;;3.75;3.65;;;9.30;99.90;;;;;;5032398;28;20113;-76
2022/12/24 13:09:30;;;;;;;3.90;3.80;;;9.30;99.90;;;;;;5033613;28;20029;-76
2022/12/24 13:12:11;;;;;;;4.25;4.15;;;9.40;99.90;;;;;;5024533;28;20062;-77
2022/12/24 13:15:14;;;;;;;3.70;3.60;;;9.40;99.90;;;;;;5028141;28;20376;-76
2022/12/24 13:17:53;;;;;;;4.00;3.90;;;9.40;99.90;;;;;;4998086;28;20453;-76
2022/12/24 13:20:32;;;;;;;4.68;4.57;;;9.50;99.90;;;;;;5026371;28;20108;-77
2022/12/24 13:23:11;;;;;;;4.10;4.00;;;9.50;99.90;;;;;;5021746;28;20406;-76